Home > Products > Valid Products > TAF

000
FTUS43 KPAH 290520
TAFPAH
TAF
KPAH 290520Z 2906/3006 16003KT P6SM BKN250
     FM291000 18004KT P6SM BKN050 OVC200
     FM291700 20007KT P6SM VCTS BKN035CB BKN100=



000
FTUS43 KPAH 290520
TAFCGI
TAF
KCGI 290520Z 2906/3006 16005KT P6SM BKN250
     FM290900 17004KT P6SM BKN050 OVC200
     FM291600 20007KT P6SM VCTS BKN035CB BKN100=



000
FTUS43 KPAH 290520
TAFEVV
TAF
KEVV 290520Z 2906/3006 16003KT P6SM SCT250
     FM291200 18005KT P6SM BKN050 OVC200
     FM291800 20010KT P6SM VCTS BKN035CB BKN100=



000
FTUS43 KPAH 290520
TAFPAH
TAF
KPAH 290520Z 2906/3006 16003KT P6SM BKN250
     FM291000 18004KT P6SM BKN050 OVC200
     FM291700 20007KT P6SM VCTS BKN035CB BKN100=



000
FTUS43 KPAH 290520
TAFCGI
TAF
KCGI 290520Z 2906/3006 16005KT P6SM BKN250
     FM290900 17004KT P6SM BKN050 OVC200
     FM291600 20007KT P6SM VCTS BKN035CB BKN100=



000
FTUS43 KPAH 290520
TAFEVV
TAF
KEVV 290520Z 2906/3006 16003KT P6SM SCT250
     FM291200 18005KT P6SM BKN050 OVC200
     FM291800 20010KT P6SM VCTS BKN035CB BKN100=



000
FTUS43 KPAH 282320
TAFCGI
TAF
KCGI 282320Z 2900/2924 18006KT P6SM BKN250
     FM290900 17004KT P6SM BKN050 OVC200
     FM291500 20007KT P6SM VCTS BKN035CB=



000
FTUS43 KPAH 282320
TAFCGI
TAF
KCGI 282320Z 2900/2924 18006KT P6SM BKN250
     FM290900 17004KT P6SM BKN050 OVC200
     FM291500 20007KT P6SM VCTS BKN035CB=



000
FTUS43 KPAH 282320
TAFEVV
TAF
KEVV 282320Z 2900/2924 16005KT P6SM SCT250
     FM291200 18005KT P6SM BKN050 OVC200
     FM291800 20010KT P6SM VCTS BKN035CB=



000
FTUS43 KPAH 282320
TAFPAH
TAF
KPAH 282320Z 2900/2924 18005KT P6SM BKN250
     FM291000 18004KT P6SM BKN050 OVC200
     FM291600 20007KT P6SM VCTS BKN035CB=



000
FTUS43 KPAH 282320
TAFEVV
TAF
KEVV 282320Z 2900/2924 16005KT P6SM SCT250
     FM291200 18005KT P6SM BKN050 OVC200
     FM291800 20010KT P6SM VCTS BKN035CB=



000
FTUS43 KPAH 282320
TAFPAH
TAF
KPAH 282320Z 2900/2924 18005KT P6SM BKN250
     FM291000 18004KT P6SM BKN050 OVC200
     FM291600 20007KT P6SM VCTS BKN035CB=



000
FTUS43 KPAH 281720
TAFCGI
TAF
KCGI 281720Z 2818/2918 15007KT P6SM SCT020 BKN035
      TEMPO 2818/2822 BKN020
     FM290100 15004KT P6SM SCT040 BKN120
     FM291500 19008KT P6SM VCTS BKN030CB=



000
FTUS43 KPAH 281720
TAFPAH
TAF
KPAH 281720Z 2818/2918 13006KT P6SM SCT025 BKN035
      TEMPO 2818/2822 BKN025
     FM290100 15004KT P6SM SCT040 BKN120
     FM291500 19008KT P6SM VCTS BKN030CB=



000
FTUS43 KPAH 281720
TAFCGI
TAF
KCGI 281720Z 2818/2918 15007KT P6SM SCT020 BKN035
      TEMPO 2818/2822 BKN020
     FM290100 15004KT P6SM SCT040 BKN120
     FM291500 19008KT P6SM VCTS BKN030CB=



000
FTUS43 KPAH 281720
TAFEVV
TAF
KEVV 281720Z 2818/2918 14005KT P6SM SCT015 BKN030
      TEMPO 2818/2822 BKN015
     FM290100 VRB02KT P6SM SCT035 BKN250
     FM291500 17006KT P6SM SCT030=



000
FTUS43 KPAH 281720
TAFPAH
TAF
KPAH 281720Z 2818/2918 13006KT P6SM SCT025 BKN035
      TEMPO 2818/2822 BKN025
     FM290100 15004KT P6SM SCT040 BKN120
     FM291500 19008KT P6SM VCTS BKN030CB=



000
FTUS43 KPAH 281720
TAFEVV
TAF
KEVV 281720Z 2818/2918 14005KT P6SM SCT015 BKN030
      TEMPO 2818/2822 BKN015
     FM290100 VRB02KT P6SM SCT035 BKN250
     FM291500 17006KT P6SM SCT030=



000
FTUS43 KPAH 281641 AAD
TAFEVV
TAF AMD
KEVV 281641Z 2817/2912 14005KT P6SM SCT015 BKN030
      TEMPO 2817/2821 BKN015
     FM290100 VRB02KT P6SM SCT035 BKN250=



000
FTUS43 KPAH 281307 AAA
TAFCGI
TAF AMD
KCGI 281307Z 2813/2912 VRB03KT P6SM SCT005
      TEMPO 2813/2814 BKN005
     FM281530 16010KT P6SM BKN035
     FM290100 16007KT P6SM BKN030=



000
FTUS43 KPAH 281307 AAB
TAFPAH
TAF AMD
KPAH 281307Z 2813/2912 VRB02KT P6SM SKC
     FM281600 18010KT P6SM BKN035
     FM290000 16006KT P6SM SKC=



000
FTUS43 KPAH 281305 AAC
TAFEVV
TAF AMD
KEVV 281305Z 2813/2912 00000KT 1SM BR BKN002
     FM281400 VRB02KT 3SM BR SCT002
     FM281530 18010KT P6SM BKN035
     FM282000 17006KT P6SM SKC=



000
FTUS43 KPAH 281221 AAB
TAFEVV
TAF AMD
KEVV 281221Z 2812/2912 15002KT 3SM BR SKC
     FM281530 18010KT P6SM BKN035
     FM282000 17006KT P6SM SKC=



000
FTUS43 KPAH 281221 AAB
TAFEVV
TAF AMD
KEVV 281221Z 2812/2912 15002KT 3SM BR SKC
     FM281530 18010KT P6SM BKN035
     FM282000 17006KT P6SM SKC=



000
FTUS43 KPAH 281152 AAA
TAFEVV
TAF AMD
KEVV 281152Z 2812/2912 15002KT 1/4SM FG VV001
     FM281330 18010KT P6SM BKN015
     FM282000 17006KT P6SM SKC=



000
FTUS43 KPAH 281152 AAA
TAFEVV
TAF AMD
KEVV 281152Z 2812/2912 15002KT 1/4SM FG VV001
     FM281330 18010KT P6SM BKN015
     FM282000 17006KT P6SM SKC=



000
FTUS43 KPAH 281120
TAFCGI
TAF
KCGI 281120Z 2812/2912 VRB03KT 6SM BR SCT015
     FM281530 16010KT P6SM BKN035
     FM290100 16007KT P6SM BKN030=



000
FTUS43 KPAH 281120
TAFEVV
TAF
KEVV 281120Z 2812/2912 15002KT 1SM BR SCT002
     FM281500 18010KT P6SM BKN035
     FM282000 17006KT P6SM SKC=



000
FTUS43 KPAH 281120
TAFPAH
TAF
KPAH 281120Z 2812/2912 20002KT 6SM BR BKN300
      TEMPO 2812/2814 2SM BR
     FM281600 18010KT P6SM BKN035
     FM290000 16006KT P6SM SKC=



000
FTUS43 KPAH 281120
TAFCGI
TAF
KCGI 281120Z 2812/2912 VRB03KT 6SM BR SCT015
     FM281530 16010KT P6SM BKN035
     FM290100 16007KT P6SM BKN030=



000
FTUS43 KPAH 281120
TAFEVV
TAF
KEVV 281120Z 2812/2912 15002KT 1SM BR SCT002
     FM281500 18010KT P6SM BKN035
     FM282000 17006KT P6SM SKC=



000
FTUS43 KPAH 281120
TAFPAH
TAF
KPAH 281120Z 2812/2912 20002KT 6SM BR BKN300
      TEMPO 2812/2814 2SM BR
     FM281600 18010KT P6SM BKN035
     FM290000 16006KT P6SM SKC=



000
FTUS43 KPAH 280957 AAB
TAFCGI
TAF AMD
KCGI 280957Z 2810/2906 VRB03KT 6SM BR BKN008 OVC020
     FM281430 16010KT P6SM BKN028
     FM281800 17006KT P6SM SCT250
     FM290100 16007KT P6SM BKN030=



000
FTUS43 KPAH 280936 AAA
TAFEVV
TAF AMD
KEVV 280936Z 2810/2906 15002KT 1 1/2SM BR SCT006
     FM281500 18010KT P6SM BKN035
     FM282000 17006KT P6SM SKC=



000
FTUS43 KPAH 280750 AAA
TAFCGI
TAF AMD
KCGI 280750Z 2808/2906 VRB03KT 6SM BR OVC030
     FM281530 16010KT P6SM BKN028
     FM281800 17006KT P6SM SCT250
     FM290100 16007KT P6SM BKN030=



000
FTUS43 KPAH 280750 AAA
TAFCGI
TAF AMD
KCGI 280750Z 2808/2906 VRB03KT 6SM BR OVC030
     FM281530 16010KT P6SM BKN028
     FM281800 17006KT P6SM SCT250
     FM290100 16007KT P6SM BKN030=



000
FTUS43 KPAH 280520
TAFCGI
TAF
KCGI 280520Z 2806/2906 20001KT 6SM BR SCT012 BKN028
      TEMPO 2806/2807 5SM -SHRA BR OVC015
     FM280700 19004KT 4SM BR OVC012
     FM281530 16010KT P6SM BKN028
     FM281800 17006KT P6SM SCT250
     FM290100 16007KT P6SM BKN030=



000
FTUS43 KPAH 280520
TAFEVV
TAF
KEVV 280520Z 2806/2906 20002KT P6SM BKN250
      TEMPO 2806/2810 4SM BR BKN035
     FM281000 15002KT 4SM BR SCT250
     FM281700 18010KT P6SM BKN035
     FM282000 17006KT P6SM SKC=



000
FTUS43 KPAH 280520
TAFPAH
TAF
KPAH 280520Z 2806/2906 20002KT P6SM BKN300
      TEMPO 2810/2814 4SM BR
     FM281600 18010KT P6SM SCT030
     FM282000 16008KT P6SM BKN050
     FM290000 16006KT P6SM SKC=



000
FTUS43 KPAH 280428 AAA
TAFEVV
TAF AMD
KEVV 280428Z 2804/2824 20002KT P6SM BKN250
     FM280900 20002KT P6SM OVC015
      TEMPO 2809/2813 4SM BR
     FM281600 18010KT P6SM SCT050=



000
FTUS43 KPAH 280427 AAB
TAFPAH
TAF AMD
KPAH 280427Z 2804/2824 20002KT P6SM BKN300
      TEMPO 2809/2813 4SM BR
     FM281500 18010KT P6SM SCT050=



000
FTUS43 KPAH 280426 AAA
TAFCGI
TAF AMD
KCGI 280426Z 2804/2824 20001KT 6SM BR SCT012 BKN028
      TEMPO 2809/2813 4SM BR OVC015
     FM281300 19004KT P6SM OVC012
     FM281600 18010KT P6SM FEW025=



000
FTUS43 KPAH 280426 AAA
TAFCGI
TAF AMD
KCGI 280426Z 2804/2824 20001KT 6SM BR SCT012 BKN028
      TEMPO 2809/2813 4SM BR OVC015
     FM281300 19004KT P6SM OVC012
     FM281600 18010KT P6SM FEW025=



000
FTUS43 KPAH 272339
TAFPAH
TAF
KPAH 272339Z 2800/2824 21005KT P6SM BKN300
     FM280130 20002KT P6SM BKN026
      TEMPO 2809/2813 4SM BR
     FM281500 18010KT P6SM SCT050=



000
FTUS43 KPAH 272339
TAFPAH
TAF
KPAH 272339Z 2800/2824 21005KT P6SM BKN300
     FM280130 20002KT P6SM BKN026
      TEMPO 2809/2813 4SM BR
     FM281500 18010KT P6SM SCT050=



000
FTUS43 KPAH 272339
TAFCGI
TAF
KCGI 272339Z 2800/2824 19005KT P6SM FEW035 BKN300
     FM280100 19003KT P6SM SCT300
      TEMPO 2801/2804 5SM -SHRA BR BKN022
     FM280400 20001KT 6SM BR SCT012 BKN026
      TEMPO 2809/2813 4SM BR OVC015
     FM281300 19004KT P6SM OVC012
     FM281600 18010KT P6SM FEW025=



000
FTUS43 KPAH 272339
TAFEVV
TAF
KEVV 272339Z 2800/2824 21005KT P6SM BKN300
     FM280130 20002KT P6SM BKN026
      TEMPO 2804/2806 -SHRA
     FM280900 20002KT P6SM OVC015
      TEMPO 2809/2813 4SM BR
     FM281600 18010KT P6SM SCT050=



000
FTUS43 KPAH 272339
TAFCGI
TAF
KCGI 272339Z 2800/2824 19005KT P6SM FEW035 BKN300
     FM280100 19003KT P6SM SCT300
      TEMPO 2801/2804 5SM -SHRA BR BKN022
     FM280400 20001KT 6SM BR SCT012 BKN026
      TEMPO 2809/2813 4SM BR OVC015
     FM281300 19004KT P6SM OVC012
     FM281600 18010KT P6SM FEW025=



000
FTUS43 KPAH 272339
TAFEVV
TAF
KEVV 272339Z 2800/2824 21005KT P6SM BKN300
     FM280130 20002KT P6SM BKN026
      TEMPO 2804/2806 -SHRA
     FM280900 20002KT P6SM OVC015
      TEMPO 2809/2813 4SM BR
     FM281600 18010KT P6SM SCT050=



000
FTUS43 KPAH 271724
TAFEVV
TAF
KEVV 271724Z 2718/2818 20006KT P6SM SCT035 BKN150
     FM280100 VRB03KT P6SM SCT150
      TEMPO 2809/2813 5SM BR
     FM281500 13004KT P6SM SCT030=



000
FTUS43 KPAH 271724
TAFPAH
TAF
KPAH 271724Z 2718/2818 18005KT P6SM SCT035 BKN250
     FM280100 20002KT P6SM SCT250
      TEMPO 2809/2813 4SM BR
     FM281500 15004KT P6SM SCT030=



000
FTUS43 KPAH 271724
TAFCGI
TAF
KCGI 271724Z 2718/2818 20008KT P6SM SCT035
     FM280100 VRB03KT P6SM SCT250
      TEMPO 2809/2813 4SM BR
     FM281500 16004KT P6SM SCT030=



000
FTUS43 KPAH 271522 AAB
TAFCGI
TAF AMD
KCGI 271522Z 2715/2812 28007KT P6SM VCSH SCT030 BKN070
     FM271800 22008KT P6SM BKN050
      TEMPO 2720/2724 5SM -TSRA BR BKN050CB
     FM280100 19003KT P6SM SCT250=



000
FTUS43 KPAH 271520 AAB
TAFPAH
TAF AMD
KPAH 271520Z 2715/2812 28007KT P6SM VCSH SCT015 BKN050
     FM271700 23008KT P6SM SCT030 BKN050
      TEMPO 2720/2724 5SM -TSRA BR BKN050CB
     FM280100 20002KT P6SM SCT250=



000
FTUS43 KPAH 271520 AAB
TAFPAH
TAF AMD
KPAH 271520Z 2715/2812 28007KT P6SM VCSH SCT015 BKN050
     FM271700 23008KT P6SM SCT030 BKN050
      TEMPO 2720/2724 5SM -TSRA BR BKN050CB
     FM280100 20002KT P6SM SCT250=



000
FTUS43 KPAH 271519 AAA
TAFEVV
TAF AMD
KEVV 271519Z 2715/2812 22007KT P6SM VCTS SCT020CB OVC040
     FM271530 VRB10G25KT 3SM -TSRA BR OVC020CB
     FM271600 23008KT P6SM BKN025
     FM271800 22010KT P6SM BKN050
      TEMPO 2720/2724 5SM -TSRA BR BKN050CB
     FM280100 22003KT P6SM SCT250=



000
FTUS43 KPAH 271429 AAC
TAFPAH
TAF AMD
KPAH 271429Z 2714/2812 VRB10G25KT 3SM -TSRA BR OVC015CB
     FM271500 23007KT 4SM -SHRA BR BKN025
     FM271700 23008KT P6SM SCT030 BKN050
      TEMPO 2720/2724 5SM -TSRA BR BKN050CB
     FM280100 20002KT P6SM SCT250=



000
FTUS43 KPAH 271407 AAB
TAFPAH
TAF AMD
KPAH 271407Z 2714/2812 24006KT P6SM SCT025 BKN250
     FM271434 VRB15G35KT 3SM -TSRA BR OVC025CB
     FM271500 23007KT 4SM -SHRA BR SCT025 BKN035
     FM271700 23008KT P6SM SCT030 BKN050
      TEMPO 2720/2724 5SM -TSRA BR BKN050CB
     FM280100 20002KT P6SM SCT250=



000
FTUS43 KPAH 271407 AAB
TAFPAH
TAF AMD
KPAH 271407Z 2714/2812 24006KT P6SM SCT025 BKN250
     FM271434 VRB15G35KT 3SM -TSRA BR OVC025CB
     FM271500 23007KT 4SM -SHRA BR SCT025 BKN035
     FM271700 23008KT P6SM SCT030 BKN050
      TEMPO 2720/2724 5SM -TSRA BR BKN050CB
     FM280100 20002KT P6SM SCT250=



000
FTUS43 KPAH 271245 AAA
TAFCGI
TAF AMD
KCGI 271245Z 2713/2812 19006KT P6SM BKN250
      TEMPO 2713/2716 5SM -TSRA BR BKN050CB
     FM271800 22008KT P6SM BKN050
      TEMPO 2720/2724 5SM -TSRA BR BKN050CB
     FM280100 19003KT P6SM SCT250=



000
FTUS43 KPAH 271120
TAFPAH
TAF
KPAH 271120Z 2712/2812 20004KT P6SM BKN250
     FM271800 23008KT P6SM BKN050
      TEMPO 2720/2724 5SM -TSRA BR BKN050CB
     FM280100 20002KT P6SM SCT250=



000
FTUS43 KPAH 271120
TAFEVV
TAF
KEVV 271120Z 2712/2812 21006KT P6SM BKN250
     FM271800 22010KT P6SM BKN050
      TEMPO 2720/2724 5SM -TSRA BR BKN050CB
     FM280100 22003KT P6SM SCT250=



000
FTUS43 KPAH 271120
TAFCGI
TAF
KCGI 271120Z 2712/2812 19006KT P6SM BKN250
     FM271800 22008KT P6SM BKN050
      TEMPO 2720/2724 5SM -TSRA BR BKN050CB
     FM280100 19003KT P6SM SCT250=



000
FTUS43 KPAH 271120
TAFPAH
TAF
KPAH 271120Z 2712/2812 20004KT P6SM BKN250
     FM271800 23008KT P6SM BKN050
      TEMPO 2720/2724 5SM -TSRA BR BKN050CB
     FM280100 20002KT P6SM SCT250=



000
FTUS43 KPAH 271120
TAFEVV
TAF
KEVV 271120Z 2712/2812 21006KT P6SM BKN250
     FM271800 22010KT P6SM BKN050
      TEMPO 2720/2724 5SM -TSRA BR BKN050CB
     FM280100 22003KT P6SM SCT250=



000
FTUS43 KPAH 271120
TAFCGI
TAF
KCGI 271120Z 2712/2812 19006KT P6SM BKN250
     FM271800 22008KT P6SM BKN050
      TEMPO 2720/2724 5SM -TSRA BR BKN050CB
     FM280100 19003KT P6SM SCT250=



000
FTUS43 KPAH 270520
TAFEVV
TAF
KEVV 270520Z 2706/2806 21006KT P6SM BKN250
     FM271600 22010KT P6SM BKN050
     FM280100 22003KT P6SM SCT250=



000
FTUS43 KPAH 270520
TAFPAH
TAF
KPAH 270520Z 2706/2806 20004KT P6SM BKN250
     FM271600 23008KT P6SM BKN050
     FM280100 20002KT P6SM SCT250=



000
FTUS43 KPAH 270520
TAFCGI
TAF
KCGI 270520Z 2706/2806 19006KT P6SM BKN250
     FM271600 22008KT P6SM BKN050
     FM280100 19003KT P6SM SCT250=



000
FTUS43 KPAH 262320
TAFPAH
TAF
KPAH 262320Z 2700/2724 23009KT P6SM SCT025 BKN050
     FM270200 21006KT P6SM SKC
     FM270700 20006KT P6SM BKN250
     FM271600 23008KT P6SM BKN050=



000
FTUS43 KPAH 262320
TAFCGI
TAF
KCGI 262320Z 2700/2724 21009KT P6SM SKC
     FM270700 19006KT P6SM BKN250
     FM271600 22008KT P6SM BKN050=



000
FTUS43 KPAH 262320
TAFEVV
TAF
KEVV 262320Z 2700/2724 23014KT P6SM SCT060
     FM270200 22009KT P6SM SKC
     FM270800 21006KT P6SM BKN250
     FM271600 22010KT P6SM BKN050=



000
FTUS43 KPAH 261733
TAFPAH
TAF
KPAH 261733Z 2618/2718 22014G22KT P6SM SCT025 BKN040
      TEMPO 2618/2620 BKN025
     FM270000 19006KT P6SM SKC
     FM270600 22006KT P6SM BKN250=



000
FTUS43 KPAH 261733
TAFEVV
TAF
KEVV 261733Z 2618/2718 21015G25KT P6SM SCT025 BKN050
     FM270000 21009KT P6SM SKC
     FM270600 22006KT P6SM BKN250=



000
FTUS43 KPAH 261733
TAFCGI
TAF
KCGI 261733Z 2618/2718 21014G22KT P6SM SCT025 BKN040
     FM270000 19009KT P6SM SKC
     FM270600 20006KT P6SM BKN250=



000
FTUS43 KPAH 261609 AAB
TAFEVV
TAF AMD
KEVV 261609Z 2616/2712 21015G24KT P6SM -SHRA BKN027 OVC050
     FM261800 21014G23KT P6SM SCT025 BKN050
     FM270100 21007KT P6SM SKC=



000
FTUS43 KPAH 261537 AAC
TAFCGI
TAF AMD
KCGI 261537Z 2616/2712 21014G23KT P6SM SCT020 BKN120
      TEMPO 2616/2618 BKN025
     FM261900 20012G19KT P6SM BKN050=



000
FTUS43 KPAH 261518 AAB
TAFPAH
TAF AMD
KPAH 261518Z 2615/2712 20008G15KT 5SM SHRA BR BKN020 OVC090
     FM261600 20012G19KT P6SM SCT025 BKN040
     FM261900 20012KT P6SM BKN050=



000
FTUS43 KPAH 261419 AAC
TAFPAH
TAF AMD
KPAH 261419Z 2614/2712 20008G15KT P6SM BKN018 OVC025
     FM261600 20012G19KT P6SM SCT025 BKN040
     FM261900 20012KT P6SM BKN050=



000
FTUS43 KPAH 261419 AAC
TAFPAH
TAF AMD
KPAH 261419Z 2614/2712 20008G15KT P6SM BKN018 OVC025
     FM261600 20012G19KT P6SM SCT025 BKN040
     FM261900 20012KT P6SM BKN050=



000
FTUS43 KPAH 261417 AAB
TAFCGI
TAF AMD
KCGI 261417Z 2614/2712 22014G23KT P6SM VCSH SCT040 OVC090
     FM261500 22012G18KT P6SM VCSH SCT018 BKN025
     FM261900 20012KT P6SM BKN050=



000
FTUS43 KPAH 261417 AAB
TAFCGI
TAF AMD
KCGI 261417Z 2614/2712 22014G23KT P6SM VCSH SCT040 OVC090
     FM261500 22012G18KT P6SM VCSH SCT018 BKN025
     FM261900 20012KT P6SM BKN050=



000
FTUS43 KPAH 261415 AAA
TAFEVV
TAF AMD
KEVV 261415Z 2614/2712 16010G18KT P6SM SCT025 OVC200
     FM261700 20012G20KT P6SM SCT025 BKN050
     FM262000 20012G18KT P6SM BKN050=



000
FTUS43 KPAH 261211 AAA
TAFCGI
TAF AMD
KCGI 261211Z 2612/2712 17014G20KT P6SM VCSH BKN015 OVC035
     FM261500 20012G18KT P6SM VCSH BKN040
     FM261900 20012KT P6SM BKN050=



000
FTUS43 KPAH 261211 AAA
TAFCGI
TAF AMD
KCGI 261211Z 2612/2712 17014G20KT P6SM VCSH BKN015 OVC035
     FM261500 20012G18KT P6SM VCSH BKN040
     FM261900 20012KT P6SM BKN050=



000
FTUS43 KPAH 261120
TAFCGI
TAF
KCGI 261120Z 2612/2712 20012G18KT P6SM VCSH BKN040
     FM261900 20012KT P6SM BKN050=



000
FTUS43 KPAH 261120
TAFPAH
TAF
KPAH 261120Z 2612/2712 15008G15KT P6SM OVC015
     FM261500 20012G18KT P6SM BKN040
     FM261900 20012KT P6SM BKN050=



000
FTUS43 KPAH 261120
TAFEVV
TAF
KEVV 261120Z 2612/2712 15008KT P6SM OVC015
     FM261500 20012G20KT P6SM SCT025 OVC040
     FM262000 20012G18KT P6SM BKN050=



000
FTUS43 KPAH 260948 AAA
TAFEVV
TAF AMD
KEVV 260948Z 2610/2706 15007KT P6SM OVC015
     FM261500 20012G20KT P6SM SCT025 OVC040
     FM262000 20012G18KT P6SM BKN050=



000
FTUS43 KPAH 260946 AAB
TAFCGI
TAF AMD
KCGI 260946Z 2610/2706 15008KT P6SM SCT015 BKN035
     FM261500 20012G18KT P6SM BKN040
     FM261900 20012KT P6SM BKN050=



000
FTUS43 KPAH 260946 AAB
TAFCGI
TAF AMD
KCGI 260946Z 2610/2706 15008KT P6SM SCT015 BKN035
     FM261500 20012G18KT P6SM BKN040
     FM261900 20012KT P6SM BKN050=



    US Dept of Commerce
    National Oceanic and Atmospheric Administration
    National Weather Service
    1325 East West Highway
    Silver Spring, MD 20910
    Page Author: NWS Internet Services Team
Disclaimer
Information Quality
Credits
Glossary
Privacy Policy
Freedom of Information Act (FOIA)
About Us
Career Opportunities